createdAt,value
2023-03-02T00:01:40.983Z,7.57
2023-03-02T00:04:14.868Z,7.20
2023-03-02T00:06:42.346Z,8.57
2023-03-02T00:09:09.699Z,8.00
2023-03-02T00:11:38.953Z,8.30
2023-03-02T00:14:07.040Z,6.03
2023-03-02T00:16:34.920Z,7.17
2023-03-02T00:19:02.456Z,7.47
2023-03-02T00:21:29.782Z,7.53
2023-03-02T00:23:56.771Z,8.20
2023-03-02T00:26:24.187Z,7.37
2023-03-02T00:28:51.213Z,7.67
2023-03-02T00:31:21.192Z,8.50
2023-03-02T00:33:51.274Z,7.40
2023-03-02T00:36:20.493Z,8.37
2023-03-02T00:38:48.164Z,7.73
2023-03-02T00:41:16.438Z,8.00
2023-03-02T00:43:43.740Z,7.67
2023-03-02T00:46:13.418Z,8.53
2023-03-02T00:48:40.719Z,7.80
2023-03-02T00:51:08.752Z,8.60
2023-03-02T00:53:36.797Z,7.90
2023-03-02T00:56:05.532Z,7.83
2023-03-02T00:58:36.599Z,7.50
2023-03-02T01:01:18.505Z,8.30
2023-03-02T01:03:49.145Z,6.47
2023-03-02T01:06:20.198Z,8.23
2023-03-02T01:08:47.908Z,7.97
2023-03-02T01:11:22.219Z,8.07
2023-03-02T01:13:50.341Z,7.93
2023-03-02T01:16:17.833Z,7.70
2023-03-02T01:18:46.881Z,7.43
2023-03-02T01:21:16.089Z,8.57
2023-03-02T01:23:43.539Z,7.87
2023-03-02T01:26:10.943Z,9.17
2023-03-02T01:28:37.833Z,6.63
2023-03-02T01:31:05.317Z,9.50
2023-03-02T01:33:32.667Z,8.53
2023-03-02T01:35:59.612Z,8.13
2023-03-02T01:38:27.137Z,7.57
2023-03-02T01:40:54.576Z,9.43
2023-03-02T01:43:22.026Z,8.70
2023-03-02T01:45:53.080Z,8.47
2023-03-02T01:48:42.132Z,8.40
2023-03-02T01:51:15.790Z,7.30
2023-03-02T01:53:46.683Z,7.07
2023-03-02T01:56:21.700Z,8.27
2023-03-02T01:58:54.426Z,7.47
2023-03-02T02:01:22.402Z,8.43
2023-03-02T02:03:51.154Z,9.07
2023-03-02T02:06:28.647Z,8.50
2023-03-02T02:08:57.458Z,8.33
2023-03-02T02:11:25.154Z,10.13
2023-03-02T02:13:59.262Z,7.70
2023-03-02T02:16:27.771Z,8.13
2023-03-02T02:18:55.434Z,7.50
2023-03-02T02:21:23.148Z,8.60
2023-03-02T02:24:15.540Z,8.70
2023-03-02T02:26:49.067Z,9.00
2023-03-02T02:29:27.023Z,7.83
2023-03-02T02:32:12.423Z,6.63
2023-03-02T02:34:54.119Z,8.10
2023-03-02T02:37:50.728Z,9.20
2023-03-02T02:40:40.143Z,6.73
2023-03-02T02:43:13.059Z,6.90
2023-03-02T02:48:16.066Z,7.27
2023-03-02T02:50:43.447Z,8.43
2023-03-02T02:53:19.535Z,8.60
2023-03-02T02:55:53.418Z,7.87
2023-03-02T02:58:20.725Z,7.33
2023-03-02T03:00:48.060Z,6.03
2023-03-02T03:03:35.338Z,8.40
2023-03-02T03:06:12.369Z,8.20
2023-03-02T03:09:00.954Z,8.37
2023-03-02T03:11:41.895Z,7.57
2023-03-02T03:14:22.699Z,7.70
2023-03-02T03:16:52.586Z,7.67
2023-03-02T03:19:27.513Z,8.43
2023-03-02T03:21:58.596Z,7.77
2023-03-02T03:24:29.889Z,7.85
2023-03-02T03:26:58.428Z,7.73
2023-03-02T03:29:28.926Z,7.20
2023-03-02T03:32:01.894Z,9.07
2023-03-02T03:34:30.772Z,7.57
2023-03-02T03:37:02.959Z,7.93
2023-03-02T03:39:34.681Z,7.10
2023-03-02T03:42:02.404Z,7.90
2023-03-02T03:44:29.740Z,6.90
2023-03-02T03:46:57.471Z,8.93
2023-03-02T03:49:25.252Z,6.40
2023-03-02T03:51:52.785Z,8.43
2023-03-02T03:54:20.234Z,8.10
2023-03-02T03:56:50.061Z,6.77
2023-03-02T03:59:22.016Z,7.20
2023-03-02T04:01:57.439Z,7.63
2023-03-02T04:04:33.520Z,7.67
2023-03-02T04:07:03.168Z,6.70
2023-03-02T04:09:32.252Z,6.40
2023-03-02T04:11:59.880Z,5.60
2023-03-02T04:14:28.234Z,8.07
2023-03-02T04:16:56.623Z,7.50
2023-03-02T04:19:25.501Z,7.10
2023-03-02T04:21:55.917Z,7.13
2023-03-02T04:24:24.650Z,7.80
2023-03-02T04:26:55.254Z,7.00
2023-03-02T04:29:23.589Z,9.00
2023-03-02T04:31:51.872Z,7.77
2023-03-02T04:34:21.557Z,7.37
2023-03-02T04:36:48.893Z,7.67
2023-03-02T04:39:18.027Z,8.67
2023-03-02T04:41:49.677Z,7.00
2023-03-02T04:44:17.977Z,8.13
2023-03-02T04:46:45.900Z,6.83
2023-03-02T04:49:14.602Z,6.80
2023-03-02T04:51:44.623Z,7.20
2023-03-02T04:54:18.120Z,8.93
2023-03-02T04:56:48.401Z,7.10
2023-03-02T04:59:16.819Z,6.40
2023-03-02T05:01:44.631Z,6.77
2023-03-02T05:04:12.463Z,7.20
2023-03-02T05:06:39.784Z,7.23
2023-03-02T05:09:07.293Z,6.63
2023-03-02T05:11:34.898Z,8.60
2023-03-02T05:14:05.818Z,7.73
2023-03-02T05:16:37.904Z,9.33
2023-03-02T05:19:07.548Z,8.25
2023-03-02T05:21:34.944Z,7.17
2023-03-02T05:24:03.167Z,7.37
2023-03-02T05:26:30.676Z,8.73
2023-03-02T05:28:58.462Z,7.13
2023-03-02T05:31:52.791Z,6.57
2023-03-02T05:34:20.212Z,8.13
2023-03-02T05:36:47.474Z,8.03
2023-03-02T05:39:14.835Z,7.13
2023-03-02T05:41:42.361Z,8.50
2023-03-02T05:44:11.866Z,7.50
2023-03-02T05:46:39.246Z,7.23
2023-03-02T05:49:06.686Z,7.63
2023-03-02T05:51:34.271Z,7.63
2023-03-02T05:54:01.884Z,7.67
2023-03-02T05:56:29.174Z,7.87
2023-03-02T05:58:56.429Z,7.73
2023-03-02T06:01:23.683Z,6.97
2023-03-02T06:03:53.604Z,9.30
2023-03-02T06:06:20.864Z,7.07
2023-03-02T06:08:48.205Z,7.33
2023-03-02T06:11:15.482Z,7.83
2023-03-02T06:13:43.139Z,10.43
2023-03-02T06:16:10.630Z,6.90
2023-03-02T06:18:40.360Z,6.73
2023-03-02T06:21:08.659Z,8.10
2023-03-02T06:23:35.938Z,9.27
2023-03-02T06:26:10.885Z,8.03
2023-03-02T06:28:51.430Z,7.50
2023-03-02T06:31:19.933Z,5.97
2023-03-02T06:33:47.293Z,6.57
2023-03-02T06:36:16.877Z,8.40
2023-03-02T06:38:44.208Z,8.33
2023-03-02T06:41:11.472Z,6.60
2023-03-02T06:43:38.788Z,7.93
2023-03-02T06:46:05.839Z,8.10
2023-03-02T06:48:33.204Z,6.67
2023-03-02T06:51:01.332Z,5.70
2023-03-02T06:53:29.314Z,7.47
2023-03-02T06:55:56.585Z,8.07
2023-03-02T06:58:23.822Z,7.50
2023-03-02T07:00:51.335Z,5.93
2023-03-02T07:03:18.736Z,7.30
2023-03-02T07:05:46.478Z,6.27
2023-03-02T07:08:13.767Z,6.27
2023-03-02T07:10:41.033Z,7.30
2023-03-02T07:13:09.381Z,7.47
2023-03-02T07:15:39.521Z,6.50
2023-03-02T07:18:06.852Z,6.43
2023-03-02T07:20:34.242Z,7.67
2023-03-02T07:23:01.569Z,7.63
2023-03-02T07:25:28.824Z,7.10
2023-03-02T07:27:56.106Z,8.13
2023-03-02T07:30:23.580Z,7.37
2023-03-02T07:32:51.574Z,7.33
2023-03-02T07:35:19.006Z,6.83
2023-03-02T07:37:46.643Z,7.37
2023-03-02T07:40:14.155Z,7.13
2023-03-02T07:42:41.487Z,6.60
2023-03-02T07:45:10.217Z,5.47
2023-03-02T07:47:37.542Z,8.10
2023-03-02T07:50:04.938Z,7.23
2023-03-02T07:52:32.261Z,9.77
2023-03-02T07:54:59.526Z,6.27
2023-03-02T07:57:26.858Z,8.27
2023-03-02T07:59:54.176Z,5.63
2023-03-02T08:02:21.529Z,11.00
2023-03-02T08:04:49.069Z,10.37
2023-03-02T08:07:16.411Z,8.97
2023-03-02T08:09:43.711Z,10.10
2023-03-02T08:12:11.267Z,5.23
2023-03-02T08:14:39.397Z,6.20
2023-03-02T08:17:06.836Z,7.80
2023-03-02T08:19:34.135Z,7.57
2023-03-02T08:22:02.045Z,8.70
2023-03-02T08:24:29.406Z,8.67
2023-03-02T08:26:56.672Z,6.47
2023-03-02T08:29:24.736Z,6.23
2023-03-02T08:31:52.122Z,6.60
2023-03-02T08:34:19.494Z,6.53
2023-03-02T08:36:46.824Z,8.67
2023-03-02T08:39:14.229Z,6.83
2023-03-02T08:41:41.605Z,4.93
2023-03-02T08:44:09.041Z,6.70
2023-03-02T08:46:36.403Z,8.10
2023-03-02T08:49:03.689Z,10.07
2023-03-02T08:51:31.457Z,6.57
2023-03-02T08:53:58.932Z,8.63
2023-03-02T08:56:29.670Z,10.53
2023-03-02T08:59:01.201Z,9.40
2023-03-02T09:01:35.064Z,8.45
2023-03-02T09:04:05.187Z,4.07
2023-03-02T09:06:36.674Z,7.57
2023-03-02T09:09:04.562Z,7.78
2023-03-02T09:11:32.684Z,7.57
2023-03-02T09:14:00.251Z,8.30
2023-03-02T09:16:27.935Z,8.20
2023-03-02T09:18:55.579Z,6.47
2023-03-02T09:21:23.186Z,6.30
2023-03-02T09:23:55.537Z,7.03
2023-03-02T09:28:50.028Z,7.03
2023-03-02T09:31:17.397Z,8.00
2023-03-02T09:33:44.908Z,8.47
2023-03-02T09:36:19.413Z,5.53
2023-03-02T09:38:46.979Z,8.37
2023-03-02T09:41:56.338Z,5.93
2023-03-02T09:44:56.774Z,7.37
2023-03-02T09:47:34.868Z,7.40
2023-03-02T09:50:27.103Z,7.70
2023-03-02T09:53:18.512Z,7.33
2023-03-02T09:55:46.360Z,7.00
2023-03-02T09:58:19.730Z,5.90
2023-03-02T10:00:47.643Z,6.28
2023-03-02T10:03:23.134Z,6.37
2023-03-02T10:05:54.032Z,5.10
2023-03-02T10:08:28.278Z,7.37
2023-03-02T10:11:28.797Z,7.53
2023-03-02T10:14:05.840Z,5.07
2023-03-02T10:17:03.425Z,5.87
2023-03-02T10:19:42.425Z,4.38
2023-03-02T10:22:28.862Z,6.85
2023-03-02T10:25:35.639Z,5.30
2023-03-02T10:28:20.080Z,6.40
2023-03-02T10:30:56.132Z,5.82
2023-03-02T10:33:23.516Z,4.88
2023-03-02T10:35:52.807Z,5.28
2023-03-02T10:38:24.334Z,2.00
2023-03-02T10:40:59.986Z,5.63
2023-03-02T10:43:34.529Z,4.95
2023-03-02T10:46:07.725Z,6.13
2023-03-02T10:48:52.909Z,6.47
2023-03-02T10:51:31.132Z,5.85
2023-03-02T10:54:12.328Z,5.70
2023-03-02T10:56:43.416Z,5.40
2023-03-02T10:59:26.030Z,6.70
2023-03-02T11:02:23.895Z,5.43
2023-03-02T11:05:13.904Z,6.35
2023-03-02T11:07:51.438Z,5.72
2023-03-02T11:10:25.182Z,6.55
2023-03-02T11:12:53.814Z,5.50
2023-03-02T11:15:36.543Z,5.68
2023-03-02T11:18:20.652Z,4.40
2023-03-02T11:20:53.357Z,7.43
2023-03-02T11:23:44.974Z,6.43
2023-03-02T11:26:26.317Z,5.25
2023-03-02T11:29:22.248Z,5.95
2023-03-02T11:31:52.388Z,6.22
2023-03-02T11:34:35.887Z,6.70
2023-03-02T11:37:15.092Z,4.25
2023-03-02T11:39:55.589Z,6.05
2023-03-02T11:42:41.402Z,6.38
2023-03-02T11:45:16.743Z,6.20
2023-03-02T11:48:02.133Z,5.63
2023-03-02T11:50:31.560Z,5.88
2023-03-02T11:53:04.982Z,5.35
2023-03-02T11:55:41.141Z,6.38
2023-03-02T11:58:17.587Z,5.63
2023-03-02T12:00:45.341Z,6.03
2023-03-02T12:03:15.535Z,4.57
2023-03-02T12:06:00.453Z,5.10
2023-03-02T12:08:44.528Z,4.85
2023-03-02T12:11:17.667Z,5.32
2023-03-02T12:13:58.439Z,4.72
2023-03-02T12:16:43.504Z,6.53
2023-03-02T12:19:29.267Z,5.60
2023-03-02T12:22:01.055Z,6.65
2023-03-02T12:24:37.872Z,5.03
2023-03-02T12:27:10.360Z,4.97
2023-03-02T12:29:46.024Z,4.68
2023-03-02T12:32:19.069Z,6.28
2023-03-02T12:35:04.210Z,5.68
2023-03-02T12:37:48.744Z,4.90
2023-03-02T12:40:39.685Z,4.65
2023-03-02T12:43:35.202Z,4.40
2023-03-02T12:46:29.083Z,4.72
2023-03-02T12:49:13.465Z,4.95
2023-03-02T12:52:03.979Z,6.00
2023-03-02T12:54:34.020Z,4.15
2023-03-02T12:57:18.632Z,4.22
2023-03-02T12:59:54.692Z,5.07
2023-03-02T13:02:31.955Z,6.32
2023-03-02T13:05:05.285Z,5.10
2023-03-02T13:07:41.181Z,4.72
2023-03-02T13:10:29.241Z,4.78
2023-03-02T13:12:58.758Z,4.95
2023-03-02T13:15:26.141Z,4.75
2023-03-02T13:17:59.358Z,5.07
2023-03-02T13:20:29.715Z,4.35
2023-03-02T13:22:57.095Z,4.97
2023-03-02T13:25:31.121Z,4.20
2023-03-02T13:28:07.258Z,5.57
2023-03-02T13:30:37.382Z,5.07
2023-03-02T13:33:22.870Z,4.18
2023-03-02T13:35:50.418Z,3.33
2023-03-02T13:38:20.311Z,4.60
2023-03-02T13:40:52.974Z,5.30
2023-03-02T13:43:36.969Z,4.60
2023-03-02T13:46:16.049Z,4.72
2023-03-02T13:49:10.118Z,5.85
2023-03-02T13:51:44.427Z,5.05
2023-03-02T13:54:25.528Z,4.70
2023-03-02T13:56:56.420Z,3.75
2023-03-02T13:59:23.414Z,5.70
2023-03-02T14:01:51.009Z,5.35
2023-03-02T14:04:24.173Z,5.63
2023-03-02T14:06:52.997Z,4.60
2023-03-02T14:09:20.593Z,4.30
2023-03-02T14:11:52.159Z,5.13
2023-03-02T14:14:24.366Z,5.57
2023-03-02T14:16:51.942Z,5.40
2023-03-02T14:19:20.047Z,5.35
2023-03-02T14:21:47.845Z,4.85
2023-03-02T14:24:15.188Z,5.60
2023-03-02T14:26:44.996Z,3.63
2023-03-02T14:29:31.535Z,5.47
2023-03-02T14:32:03.576Z,4.13
2023-03-02T14:34:30.996Z,4.75
2023-03-02T14:37:04.497Z,4.70
2023-03-02T14:39:37.678Z,5.65
2023-03-02T14:42:06.486Z,4.53
2023-03-02T14:44:33.851Z,5.53
2023-03-02T14:47:00.737Z,5.15
2023-03-02T14:49:27.687Z,4.82
2023-03-02T14:52:08.375Z,5.90
2023-03-02T14:54:42.820Z,5.32
2023-03-02T14:57:27.515Z,5.03
2023-03-02T14:59:56.111Z,4.53
2023-03-02T15:02:26.932Z,5.03
2023-03-02T15:04:57.029Z,5.20
2023-03-02T15:07:28.572Z,5.30
2023-03-02T15:09:57.331Z,4.87
2023-03-02T15:12:24.996Z,4.90
2023-03-02T15:14:52.040Z,4.47
2023-03-02T15:17:19.485Z,5.60
2023-03-02T15:19:47.256Z,5.43
2023-03-02T15:22:14.633Z,4.82
2023-03-02T15:24:42.136Z,4.82
2023-03-02T15:27:09.026Z,4.75
2023-03-02T15:29:36.283Z,5.07
2023-03-02T15:32:03.703Z,6.18
2023-03-02T15:34:31.070Z,4.97
2023-03-02T15:36:57.924Z,4.78
2023-03-02T15:39:25.262Z,4.57
2023-03-02T15:41:53.726Z,5.72
2023-03-02T15:44:24.034Z,5.70
2023-03-02T15:46:53.999Z,5.75
2023-03-02T15:49:24.329Z,4.90
2023-03-02T15:51:52.190Z,5.90
2023-03-02T15:54:20.452Z,6.70
2023-03-02T15:56:53.496Z,6.95
2023-03-02T15:59:21.844Z,6.25
2023-03-02T16:01:49.448Z,6.85
2023-03-02T16:04:16.952Z,5.65
2023-03-02T16:06:44.399Z,5.95
2023-03-02T16:09:11.899Z,6.55
2023-03-02T16:11:39.395Z,7.03
2023-03-02T16:14:06.978Z,7.03
2023-03-02T16:16:34.557Z,6.03
2023-03-02T16:19:01.642Z,7.30
2023-03-02T16:21:29.329Z,6.65
2023-03-02T16:24:03.218Z,6.78
2023-03-02T16:26:35.286Z,5.85
2023-03-02T16:29:05.601Z,6.53
2023-03-02T16:31:34.156Z,7.90
2023-03-02T16:34:06.882Z,8.25
2023-03-02T16:36:38.451Z,6.05
2023-03-02T16:39:07.147Z,6.38
2023-03-02T16:41:34.999Z,7.15
2023-03-02T16:44:02.113Z,7.07
2023-03-02T16:46:31.375Z,6.45
2023-03-02T16:48:58.840Z,6.03
2023-03-02T16:51:25.844Z,5.43
2023-03-02T16:53:53.195Z,5.53
2023-03-02T16:56:20.854Z,6.63
2023-03-02T16:58:48.313Z,6.75
2023-03-02T17:01:19.583Z,5.72
2023-03-02T17:03:50.179Z,5.50
2023-03-02T17:06:22.219Z,6.05
2023-03-02T17:08:50.616Z,6.03
2023-03-02T17:11:18.051Z,5.72
2023-03-02T17:13:45.351Z,6.38
2023-03-02T17:16:13.187Z,4.82
2023-03-02T17:18:40.965Z,5.05
2023-03-02T17:21:08.316Z,5.30
2023-03-02T17:23:36.829Z,5.35
2023-03-02T17:26:04.361Z,4.63
2023-03-02T17:28:31.838Z,6.15
2023-03-02T17:31:00.158Z,6.30
2023-03-02T17:33:27.664Z,5.35
2023-03-02T17:35:54.548Z,5.60
2023-03-02T17:38:21.914Z,4.55
2023-03-02T17:40:49.495Z,5.30
2023-03-02T17:43:16.400Z,5.45
2023-03-02T17:45:43.295Z,6.32
2023-03-02T17:48:10.338Z,5.15
2023-03-02T17:50:37.387Z,5.00
2023-03-02T17:53:04.318Z,4.72
2023-03-02T17:55:31.932Z,5.60
2023-03-02T17:57:59.275Z,5.38
2023-03-02T18:00:26.896Z,5.13
2023-03-02T18:02:54.024Z,6.57
2023-03-02T18:05:22.156Z,7.18
2023-03-02T18:07:51.528Z,7.07
2023-03-02T18:10:18.881Z,6.53
2023-03-02T18:12:47.982Z,6.85
2023-03-02T18:15:14.839Z,7.18
2023-03-02T18:17:42.116Z,6.60
2023-03-02T18:20:10.237Z,7.82
2023-03-02T18:22:37.085Z,7.38
2023-03-02T18:25:04.740Z,7.22
2023-03-02T18:27:32.014Z,6.00
2023-03-02T18:29:59.442Z,5.85
2023-03-02T18:32:26.845Z,7.18
2023-03-02T18:34:54.258Z,8.27
2023-03-02T18:37:21.536Z,8.30
2023-03-02T18:39:49.203Z,8.55
2023-03-02T18:42:16.570Z,7.43
2023-03-02T18:44:43.459Z,8.43
2023-03-02T18:47:16.396Z,8.25
2023-03-02T18:49:44.348Z,7.20
2023-03-02T18:52:11.988Z,7.95
2023-03-02T18:54:39.360Z,9.48
2023-03-02T18:57:08.363Z,9.02
2023-03-02T18:59:36.667Z,8.52
2023-03-02T19:02:11.892Z,9.02
2023-03-02T19:04:39.266Z,8.23
2023-03-02T19:07:07.243Z,8.95
2023-03-02T19:09:35.401Z,7.93
2023-03-02T19:12:02.735Z,8.23
2023-03-02T19:14:29.615Z,8.35
2023-03-02T19:16:56.520Z,8.88
2023-03-02T19:19:23.962Z,9.77
2023-03-02T19:21:50.948Z,8.80
2023-03-02T19:24:18.233Z,7.70
2023-03-02T19:26:45.773Z,9.77
2023-03-02T19:29:13.079Z,7.13
2023-03-02T19:31:40.240Z,8.15
2023-03-02T19:34:07.419Z,9.40
2023-03-02T19:36:34.752Z,8.25
2023-03-02T19:39:02.155Z,7.75
2023-03-02T19:41:29.528Z,9.13
2023-03-02T19:43:57.301Z,8.43
2023-03-02T19:46:24.852Z,8.68
2023-03-02T19:48:51.783Z,8.88
2023-03-02T19:51:19.229Z,9.40
2023-03-02T19:53:47.030Z,8.75
2023-03-02T19:56:15.527Z,8.57
2023-03-02T19:58:47.789Z,8.45
2023-03-02T20:03:51.674Z,8.70
2023-03-02T20:06:21.676Z,8.80
2023-03-02T20:08:49.372Z,8.13
2023-03-02T20:11:17.125Z,8.70
2023-03-02T20:13:44.744Z,9.20
2023-03-02T20:16:14.456Z,10.70
2023-03-02T20:18:42.274Z,9.40
2023-03-02T20:21:09.613Z,8.57
2023-03-02T20:23:37.031Z,9.55
2023-03-02T20:26:11.506Z,9.68
2023-03-02T20:28:39.227Z,8.82
2023-03-02T20:31:11.721Z,8.77
2023-03-02T20:33:46.279Z,8.27
2023-03-02T20:36:16.740Z,9.15
2023-03-02T20:39:01.627Z,8.60
2023-03-02T20:41:28.648Z,9.00
2023-03-02T20:43:55.929Z,9.07
2023-03-02T20:46:28.111Z,7.85
2023-03-02T20:51:23.340Z,8.10
2023-03-02T20:53:50.581Z,8.68
2023-03-02T20:56:18.475Z,9.50
2023-03-02T20:58:47.176Z,10.07
2023-03-02T21:01:15.803Z,11.25
2023-03-02T21:03:43.506Z,7.88
2023-03-02T21:06:11.839Z,7.88
2023-03-02T21:08:39.751Z,9.13
2023-03-02T21:11:15.554Z,9.30
2023-03-02T21:13:47.407Z,9.13
2023-03-02T21:16:24.503Z,10.50
2023-03-02T21:18:52.050Z,9.07
2023-03-02T21:21:20.179Z,8.38
2023-03-02T21:23:50.405Z,8.32
2023-03-02T21:26:17.537Z,10.13
2023-03-02T21:28:44.842Z,11.50
2023-03-02T21:31:18.187Z,9.82
2023-03-02T21:33:45.924Z,8.55
2023-03-02T21:36:23.232Z,10.60
2023-03-02T21:38:52.084Z,8.88
2023-03-02T21:41:19.748Z,9.13
2023-03-02T21:43:47.812Z,9.77
2023-03-02T21:46:19.663Z,9.13
2023-03-02T21:48:47.931Z,8.32
2023-03-02T21:51:15.157Z,10.45
2023-03-02T21:53:42.142Z,9.85
2023-03-02T21:56:10.834Z,10.13
2023-03-02T21:58:39.534Z,10.55
2023-03-02T22:01:06.905Z,8.63
2023-03-02T22:03:36.482Z,9.82
2023-03-02T22:06:03.858Z,9.10
2023-03-02T22:08:31.434Z,9.32
2023-03-02T22:10:58.707Z,8.82
2023-03-02T22:13:34.164Z,9.50
2023-03-02T22:16:20.403Z,8.13
2023-03-02T22:18:49.882Z,9.75
2023-03-02T22:21:36.959Z,10.38
2023-03-02T22:24:10.498Z,11.02
2023-03-02T22:27:05.287Z,10.32
2023-03-02T22:29:44.821Z,11.07
2023-03-02T22:32:26.123Z,12.07
2023-03-02T22:34:56.657Z,11.02
2023-03-02T22:37:29.985Z,11.90
2023-03-02T22:40:02.246Z,13.52
2023-03-02T22:45:14.572Z,11.23
2023-03-02T22:47:43.247Z,10.15
2023-03-02T22:50:23.186Z,9.23
2023-03-02T22:52:50.969Z,8.77
2023-03-02T22:55:44.777Z,10.65
2023-03-02T22:58:36.234Z,9.60
2023-03-02T23:01:06.148Z,11.18
2023-03-02T23:03:40.061Z,9.55
2023-03-02T23:06:29.408Z,8.52
2023-03-02T23:09:00.414Z,9.85
2023-03-02T23:11:28.933Z,10.05
2023-03-02T23:13:56.059Z,9.73
2023-03-02T23:16:29.201Z,8.95
2023-03-02T23:18:59.264Z,9.20
2023-03-02T23:21:46.566Z,11.35
2023-03-02T23:24:14.031Z,9.13
2023-03-02T23:26:41.207Z,9.77
2023-03-02T23:29:08.639Z,9.93
2023-03-02T23:31:35.989Z,10.60
2023-03-02T23:34:03.287Z,10.25
2023-03-02T23:36:31.898Z,11.30
2023-03-02T23:38:58.914Z,11.98
2023-03-02T23:41:26.911Z,9.88
2023-03-02T23:43:54.223Z,8.85
2023-03-02T23:46:21.568Z,10.55
2023-03-02T23:48:48.537Z,8.80
2023-03-02T23:51:16.083Z,8.18
2023-03-02T23:53:43.976Z,10.77
2023-03-02T23:56:11.453Z,9.45
2023-03-02T23:58:39.342Z,11.45
